createdAt,value
2022-08-31T00:01:28.941Z,7.93
2022-08-31T00:04:32.600Z,8.90
2022-08-31T00:07:35.689Z,8.67
2022-08-31T00:10:44.909Z,12.40
2022-08-31T00:13:47.334Z,11.00
2022-08-31T00:16:59.405Z,7.60
2022-08-31T00:20:01.386Z,8.30
2022-08-31T00:23:05.484Z,8.30
2022-08-31T00:26:07.994Z,7.83
2022-08-31T00:29:10.686Z,7.97
2022-08-31T00:32:13.144Z,9.83
2022-08-31T00:35:15.069Z,8.90
2022-08-31T00:38:17.417Z,7.83
2022-08-31T00:41:23.477Z,7.20
2022-08-31T00:44:25.566Z,9.33
2022-08-31T00:47:27.508Z,7.90
2022-08-31T00:50:29.465Z,10.17
2022-08-31T00:53:31.478Z,9.50
2022-08-31T00:56:34.794Z,9.43
2022-08-31T00:59:37.808Z,8.60
2022-08-31T01:02:40.222Z,10.67
2022-08-31T01:05:42.683Z,8.57
2022-08-31T01:08:46.418Z,11.70
2022-08-31T01:11:48.568Z,10.63
2022-08-31T01:14:50.609Z,11.07
2022-08-31T01:17:54.904Z,8.00
2022-08-31T01:21:37.544Z,7.70
2022-08-31T01:24:42.859Z,10.03
2022-08-31T01:27:45.008Z,8.53
2022-08-31T01:31:08.130Z,9.00
2022-08-31T01:34:10.643Z,9.07
2022-08-31T01:37:13.431Z,9.07
2022-08-31T01:40:18.385Z,10.37
2022-08-31T01:43:21.163Z,9.23
2022-08-31T01:46:23.877Z,8.73
2022-08-31T01:49:25.894Z,10.80
2022-08-31T01:52:28.683Z,8.23
2022-08-31T01:55:31.149Z,8.10
2022-08-31T01:58:33.254Z,7.87
2022-08-31T02:01:39.868Z,7.90
2022-08-31T02:04:42.045Z,10.27
2022-08-31T02:07:44.288Z,7.13
2022-08-31T02:10:46.623Z,9.10
2022-08-31T02:13:48.588Z,7.50
2022-08-31T02:16:51.237Z,6.97
2022-08-31T02:19:53.186Z,12.80
2022-08-31T02:22:55.178Z,10.20
2022-08-31T02:25:57.651Z,9.17
2022-08-31T02:28:59.655Z,7.73
2022-08-31T02:32:01.932Z,8.47
2022-08-31T02:35:05.046Z,10.07
2022-08-31T02:38:07.145Z,7.67
2022-08-31T02:41:09.194Z,13.47
2022-08-31T02:44:11.213Z,9.50
2022-08-31T02:47:13.286Z,8.73
2022-08-31T02:50:15.352Z,7.97
2022-08-31T02:53:19.387Z,10.47
2022-08-31T02:56:21.533Z,10.00
2022-08-31T02:59:23.428Z,8.50
2022-08-31T03:02:32.157Z,9.13
2022-08-31T03:05:34.453Z,9.50
2022-08-31T03:08:36.789Z,8.17
2022-08-31T03:11:38.727Z,8.03
2022-08-31T03:14:40.673Z,8.83
2022-08-31T03:17:42.943Z,7.10
2022-08-31T03:20:44.852Z,7.70
2022-08-31T03:23:46.912Z,7.43
2022-08-31T03:26:49.988Z,10.53
2022-08-31T03:29:53.089Z,7.17
2022-08-31T03:32:57.255Z,7.67
2022-08-31T03:36:05.838Z,7.20
2022-08-31T03:39:07.838Z,9.20
2022-08-31T03:42:09.837Z,8.33
2022-08-31T03:45:12.503Z,9.73
2022-08-31T03:48:14.538Z,7.97
2022-08-31T03:51:18.542Z,15.80
2022-08-31T03:54:20.849Z,15.67
2022-08-31T03:57:22.872Z,17.97
2022-08-31T04:00:25.643Z,12.57
2022-08-31T04:03:30.573Z,14.67
2022-08-31T04:06:32.668Z,13.57
2022-08-31T04:09:34.667Z,11.70
2022-08-31T04:12:36.679Z,12.97
2022-08-31T04:15:39.853Z,11.47
2022-08-31T04:18:44.093Z,10.93
2022-08-31T04:21:47.585Z,11.60
2022-08-31T04:24:49.553Z,11.83
2022-08-31T04:27:52.127Z,18.47
2022-08-31T04:30:54.731Z,12.13
2022-08-31T04:33:57.727Z,10.77
2022-08-31T04:36:59.748Z,12.43
2022-08-31T04:40:04.278Z,13.23
2022-08-31T04:43:06.947Z,10.90
2022-08-31T04:46:09.279Z,12.20
2022-08-31T04:49:11.883Z,13.50
2022-08-31T04:52:14.250Z,10.37
2022-08-31T04:55:17.343Z,13.03
2022-08-31T04:58:20.839Z,15.70
2022-08-31T05:01:25.345Z,16.33
2022-08-31T05:04:29.548Z,14.00
2022-08-31T05:07:31.518Z,17.90
2022-08-31T05:10:33.550Z,20.97
2022-08-31T05:13:35.468Z,16.30
2022-08-31T05:16:39.587Z,13.90
2022-08-31T05:19:42.017Z,13.33
2022-08-31T05:22:43.913Z,12.17
2022-08-31T05:25:47.332Z,14.37
2022-08-31T05:28:50.199Z,16.00
2022-08-31T05:31:52.892Z,12.60
2022-08-31T05:34:55.042Z,16.17
2022-08-31T05:37:57.218Z,14.33
2022-08-31T05:40:59.141Z,17.30
2022-08-31T05:53:43.897Z,12.43
2022-08-31T05:56:46.127Z,12.20
2022-08-31T05:59:50.878Z,13.10
2022-08-31T06:02:55.496Z,12.90
2022-08-31T06:05:57.770Z,14.23
2022-08-31T06:08:59.813Z,14.97
2022-08-31T06:12:01.991Z,14.00
2022-08-31T06:15:05.372Z,14.73
2022-08-31T06:18:08.458Z,14.77
2022-08-31T06:21:12.823Z,14.37
2022-08-31T06:24:15.053Z,16.67
2022-08-31T06:27:18.283Z,15.43
2022-08-31T06:30:21.238Z,12.40
2022-08-31T06:33:23.312Z,11.80
2022-08-31T06:36:28.174Z,11.93
2022-08-31T06:39:30.568Z,16.83
2022-08-31T06:42:32.598Z,13.27
2022-08-31T06:45:34.583Z,15.70
2022-08-31T06:48:37.113Z,12.57
2022-08-31T06:51:39.204Z,13.03
2022-08-31T06:54:41.589Z,12.13
2022-08-31T06:57:43.648Z,12.50
2022-08-31T07:00:46.268Z,13.63
2022-08-31T07:03:50.629Z,12.47
2022-08-31T07:06:52.580Z,12.87
2022-08-31T07:09:54.775Z,12.37
2022-08-31T07:12:56.694Z,14.07
2022-08-31T07:16:07.200Z,11.43
2022-08-31T07:19:10.670Z,12.27
2022-08-31T07:22:15.306Z,11.70
2022-08-31T07:25:18.450Z,11.50
2022-08-31T07:28:20.424Z,12.53
2022-08-31T07:31:26.474Z,11.83
2022-08-31T07:34:30.965Z,12.50
2022-08-31T07:37:51.800Z,11.90
2022-08-31T07:41:12.629Z,11.27
2022-08-31T07:44:16.970Z,10.83
2022-08-31T07:47:22.620Z,12.63
2022-08-31T07:50:27.266Z,13.20
2022-08-31T07:53:29.320Z,10.97
2022-08-31T07:56:34.864Z,14.53
2022-08-31T07:59:39.664Z,13.40
2022-08-31T08:02:50.833Z,10.77
2022-08-31T08:05:56.227Z,11.60
2022-08-31T08:09:22.294Z,11.27
2022-08-31T08:12:28.015Z,10.47
2022-08-31T08:15:32.155Z,10.70
2022-08-31T08:18:34.550Z,10.33
2022-08-31T08:21:36.770Z,11.63
2022-08-31T08:24:40.418Z,10.02
2022-08-31T08:27:42.860Z,9.67
2022-08-31T08:30:46.155Z,9.87
2022-08-31T08:33:48.230Z,10.60
2022-08-31T08:36:50.390Z,9.80
2022-08-31T08:39:52.726Z,10.70
2022-08-31T08:42:54.887Z,8.17
2022-08-31T08:45:57.483Z,7.50
2022-08-31T08:49:01.239Z,8.80
2022-08-31T08:52:31.027Z,8.87
2022-08-31T08:55:38.626Z,10.47
2022-08-31T08:58:44.020Z,10.73
2022-08-31T09:01:48.862Z,9.77
2022-08-31T09:05:04.694Z,10.77
2022-08-31T09:08:43.993Z,8.50
2022-08-31T09:11:52.872Z,9.77
2022-08-31T09:15:15.772Z,11.90
2022-08-31T09:18:26.650Z,6.90
2022-08-31T09:21:34.545Z,6.50
2022-08-31T09:24:38.818Z,6.45
2022-08-31T09:27:46.682Z,8.18
2022-08-31T09:30:55.287Z,7.68
2022-08-31T09:33:57.298Z,9.00
2022-08-31T09:37:22.189Z,6.75
2022-08-31T09:40:48.742Z,7.68
2022-08-31T09:43:50.699Z,6.40
2022-08-31T09:46:56.802Z,6.80
2022-08-31T09:49:58.690Z,6.22
2022-08-31T09:53:43.200Z,6.95
2022-08-31T09:57:02.780Z,7.63
2022-08-31T10:00:05.325Z,7.72
2022-08-31T10:03:21.158Z,11.00
2022-08-31T10:06:35.828Z,7.43
2022-08-31T10:09:47.453Z,7.73
2022-08-31T10:12:58.308Z,9.07
2022-08-31T10:16:03.690Z,9.63
2022-08-31T10:19:16.663Z,12.10
2022-08-31T10:23:14.692Z,11.87
2022-08-31T10:26:19.493Z,15.20
2022-08-31T10:29:41.708Z,11.97
2022-08-31T10:32:57.513Z,14.40
2022-08-31T10:36:00.933Z,14.03
2022-08-31T10:39:03.923Z,15.93
2022-08-31T10:42:11.123Z,11.80
2022-08-31T10:45:24.589Z,14.37
2022-08-31T10:48:26.765Z,13.90
2022-08-31T10:52:05.454Z,11.73
2022-08-31T10:55:37.762Z,15.17
2022-08-31T10:59:02.393Z,14.87
2022-08-31T11:02:27.433Z,11.48
2022-08-31T11:05:50.735Z,14.83
2022-08-31T11:09:08.363Z,12.57
2022-08-31T11:12:21.824Z,11.88
2022-08-31T11:15:31.309Z,11.75
2022-08-31T11:18:46.458Z,9.43
2022-08-31T11:21:57.196Z,10.65
2022-08-31T11:25:37.986Z,9.40
2022-08-31T11:28:59.045Z,10.02
2022-08-31T11:32:15.258Z,9.18
2022-08-31T11:36:06.131Z,11.02
2022-08-31T11:39:08.800Z,7.40
2022-08-31T11:42:27.744Z,6.68
2022-08-31T11:45:33.259Z,6.28
2022-08-31T11:49:00.129Z,8.05
2022-08-31T11:52:05.901Z,7.70
2022-08-31T11:55:21.336Z,11.27
2022-08-31T11:58:32.143Z,11.23
2022-08-31T12:01:36.009Z,11.57
2022-08-31T12:04:46.708Z,12.00
2022-08-31T12:07:48.783Z,12.63
2022-08-31T12:11:05.718Z,12.10
2022-08-31T12:14:29.205Z,12.37
2022-08-31T12:17:33.144Z,11.17
2022-08-31T12:21:18.023Z,13.03
2022-08-31T12:24:40.224Z,11.47
2022-08-31T12:28:16.355Z,11.00
2022-08-31T12:31:20.520Z,12.20
2022-08-31T12:34:23.758Z,10.43
2022-08-31T12:37:34.516Z,12.40
2022-08-31T12:41:03.797Z,12.67
2022-08-31T12:44:05.801Z,17.33
2022-08-31T12:47:31.773Z,12.00
2022-08-31T12:50:46.504Z,11.37
2022-08-31T12:54:02.672Z,11.47
2022-08-31T12:57:25.684Z,12.43
2022-08-31T13:00:33.067Z,12.07
2022-08-31T13:03:35.240Z,12.47
2022-08-31T13:06:39.038Z,13.20
2022-08-31T13:09:43.013Z,12.13
2022-08-31T13:13:08.139Z,10.33
2022-08-31T13:16:12.660Z,9.90
2022-08-31T13:19:35.578Z,10.70
2022-08-31T13:22:44.902Z,10.23
2022-08-31T13:25:51.778Z,10.33
2022-08-31T13:28:54.353Z,10.73
2022-08-31T13:31:56.330Z,11.43
2022-08-31T13:35:04.458Z,9.23
2022-08-31T13:38:08.904Z,9.40
2022-08-31T13:41:36.763Z,8.87
2022-08-31T13:44:46.363Z,9.27
2022-08-31T13:48:10.623Z,9.53
2022-08-31T13:51:19.610Z,10.60
2022-08-31T13:54:41.938Z,10.63
2022-08-31T13:58:00.052Z,10.87
2022-08-31T14:01:23.708Z,7.67
2022-08-31T14:04:44.275Z,8.37
2022-08-31T14:07:47.009Z,9.53
2022-08-31T14:10:49.912Z,6.83
2022-08-31T14:13:52.890Z,7.10
2022-08-31T14:16:57.755Z,7.23
2022-08-31T14:20:34.149Z,7.77
2022-08-31T14:23:45.317Z,7.80
2022-08-31T14:26:47.255Z,7.37
2022-08-31T14:29:49.468Z,9.50
2022-08-31T14:32:51.398Z,7.40
2022-08-31T14:35:54.949Z,8.53
2022-08-31T14:38:57.635Z,9.40
2022-08-31T14:42:02.993Z,9.53
2022-08-31T14:45:18.858Z,11.47
2022-08-31T14:48:21.106Z,9.80
2022-08-31T14:51:24.208Z,9.07
2022-08-31T14:54:28.711Z,9.63
2022-08-31T14:57:32.357Z,9.97
2022-08-31T15:00:41.882Z,9.90
2022-08-31T15:03:45.362Z,9.43
2022-08-31T15:06:54.159Z,8.03
2022-08-31T15:09:56.124Z,7.60
2022-08-31T15:13:05.702Z,8.83
2022-08-31T15:16:08.534Z,9.27
2022-08-31T15:19:13.858Z,8.90
2022-08-31T15:22:16.195Z,10.27
2022-08-31T15:25:20.038Z,10.00
2022-08-31T15:28:22.284Z,9.67
2022-08-31T15:31:27.348Z,8.00
2022-08-31T15:34:31.634Z,9.93
2022-08-31T15:37:33.754Z,8.90
2022-08-31T15:40:39.038Z,11.10
2022-08-31T15:43:41.753Z,10.20
2022-08-31T15:47:03.878Z,10.13
2022-08-31T15:50:06.742Z,9.37
2022-08-31T15:53:10.921Z,9.43
2022-08-31T15:56:13.062Z,10.73
2022-08-31T15:59:16.103Z,10.27
2022-08-31T16:02:21.336Z,12.07
2022-08-31T16:05:28.498Z,10.70
2022-08-31T16:08:30.724Z,10.13
2022-08-31T16:11:37.130Z,9.93
2022-08-31T16:14:41.962Z,9.87
2022-08-31T16:17:44.175Z,9.30
2022-08-31T16:20:49.368Z,13.47
2022-08-31T16:24:00.969Z,10.30
2022-08-31T16:27:06.603Z,8.07
2022-08-31T16:30:11.384Z,8.23
2022-08-31T16:33:13.424Z,9.23
2022-08-31T16:36:20.542Z,11.37
2022-08-31T16:39:26.344Z,9.70
2022-08-31T16:42:29.892Z,11.37
2022-08-31T16:45:31.899Z,11.23
2022-08-31T16:48:52.384Z,10.33
2022-08-31T16:51:54.483Z,10.20
2022-08-31T16:54:57.547Z,10.37
2022-08-31T16:57:59.677Z,14.27
2022-08-31T17:01:12.881Z,12.67
2022-08-31T17:04:29.511Z,14.27
2022-08-31T17:07:42.950Z,11.73
2022-08-31T17:10:46.389Z,12.27
2022-08-31T17:13:49.882Z,13.13
2022-08-31T17:16:53.009Z,11.53
2022-08-31T17:19:58.568Z,11.27
2022-08-31T17:23:00.587Z,12.23
2022-08-31T17:26:06.557Z,10.23
2022-08-31T17:29:09.937Z,10.43
2022-08-31T17:32:15.276Z,10.87
2022-08-31T17:35:18.781Z,10.33
2022-08-31T17:38:21.349Z,10.27
2022-08-31T17:41:26.877Z,12.40
2022-08-31T17:44:31.064Z,9.73
2022-08-31T17:47:33.479Z,9.43
2022-08-31T17:50:35.432Z,11.50
2022-08-31T17:53:37.872Z,10.67
2022-08-31T17:56:56.423Z,10.03
2022-08-31T17:59:58.513Z,11.50
2022-08-31T18:03:00.487Z,11.23
2022-08-31T18:06:02.692Z,11.03
2022-08-31T18:09:05.060Z,10.13
2022-08-31T18:12:08.177Z,12.00
2022-08-31T18:15:11.961Z,10.90
2022-08-31T18:18:14.831Z,10.30
2022-08-31T18:21:22.902Z,12.13
2022-08-31T18:24:25.605Z,11.03
2022-08-31T18:27:27.674Z,12.63
2022-08-31T18:30:34.984Z,14.23
2022-08-31T18:33:39.956Z,11.90
2022-08-31T18:36:43.608Z,11.77
2022-08-31T18:40:07.721Z,15.00
2022-08-31T18:43:29.543Z,11.30
2022-08-31T18:46:31.644Z,10.20
2022-08-31T18:49:42.059Z,13.03
2022-08-31T18:52:48.464Z,11.47
2022-08-31T18:55:50.535Z,12.47
2022-08-31T18:58:52.919Z,11.33
2022-08-31T19:01:55.491Z,14.90
2022-08-31T19:04:57.769Z,10.93
2022-08-31T19:08:00.693Z,12.87
2022-08-31T19:11:07.300Z,13.03
2022-08-31T19:14:09.894Z,12.83
2022-08-31T19:17:11.939Z,13.00
2022-08-31T19:20:13.914Z,13.67
2022-08-31T19:23:20.043Z,11.63
2022-08-31T19:26:26.970Z,10.60
2022-08-31T19:29:31.406Z,11.87
2022-08-31T19:32:34.079Z,13.83
2022-08-31T19:35:36.511Z,11.37
2022-08-31T19:38:42.974Z,11.07
2022-08-31T19:41:53.285Z,12.30
2022-08-31T19:45:22.861Z,11.23
2022-08-31T19:48:23.934Z,10.47
2022-08-31T19:51:28.213Z,12.57
2022-08-31T19:54:39.213Z,13.90
2022-08-31T19:57:43.681Z,19.87
2022-08-31T20:00:47.291Z,14.37
2022-08-31T20:03:56.881Z,14.03
2022-08-31T20:06:59.478Z,13.53
2022-08-31T20:10:02.200Z,13.97
2022-08-31T20:13:05.374Z,14.90
2022-08-31T20:16:14.643Z,14.07
2022-08-31T20:19:25.043Z,11.80
2022-08-31T20:22:30.018Z,14.30
2022-08-31T20:25:32.038Z,14.30
2022-08-31T20:28:35.119Z,15.97
2022-08-31T20:31:43.389Z,14.23
2022-08-31T20:34:46.349Z,12.70
2022-08-31T20:37:48.339Z,12.70
2022-08-31T20:40:53.239Z,13.47
2022-08-31T20:43:57.444Z,13.73
2022-08-31T20:47:21.230Z,13.53
2022-08-31T20:50:23.729Z,12.50
2022-08-31T20:53:43.153Z,13.53
2022-08-31T20:56:46.726Z,14.67
2022-08-31T20:59:51.902Z,16.83
2022-08-31T21:02:54.406Z,15.87
2022-08-31T21:05:56.348Z,19.23
2022-08-31T21:08:58.393Z,15.70
2022-08-31T21:12:01.546Z,14.83
2022-08-31T21:15:04.805Z,15.47
2022-08-31T21:18:06.748Z,14.93
2022-08-31T21:21:15.453Z,15.17
2022-08-31T21:24:19.813Z,16.47
2022-08-31T21:27:21.768Z,17.90
2022-08-31T21:30:23.837Z,14.93
2022-08-31T21:33:25.963Z,15.83
2022-08-31T21:36:29.711Z,16.70
2022-08-31T21:39:36.709Z,16.13
2022-08-31T21:42:38.774Z,16.07
2022-08-31T21:45:48.326Z,15.63
2022-08-31T21:49:00.432Z,17.03
2022-08-31T21:52:02.543Z,15.63
2022-08-31T21:55:05.993Z,20.93
2022-08-31T21:58:07.954Z,19.10
2022-08-31T22:01:18.965Z,19.33
2022-08-31T22:04:21.567Z,19.43
2022-08-31T22:07:23.556Z,18.83
2022-08-31T22:10:25.804Z,18.20
2022-08-31T22:13:27.824Z,19.30
2022-08-31T22:16:30.249Z,16.73
2022-08-31T22:19:38.884Z,19.77
2022-08-31T22:22:41.100Z,17.37
2022-08-31T22:25:43.719Z,18.33
2022-08-31T22:28:46.876Z,20.27
2022-08-31T22:31:54.528Z,21.90
2022-08-31T22:34:57.341Z,19.20
2022-08-31T22:37:59.318Z,20.10
2022-08-31T22:41:08.034Z,19.33
2022-08-31T22:44:12.804Z,19.30
2022-08-31T22:47:14.904Z,20.97
2022-08-31T22:50:16.899Z,17.60
2022-08-31T22:53:19.183Z,17.20
2022-08-31T22:56:25.981Z,18.80
2022-08-31T22:59:28.442Z,15.90
2022-08-31T23:02:31.322Z,15.30
2022-08-31T23:05:36.751Z,17.33
2022-08-31T23:08:39.819Z,14.73
2022-08-31T23:11:41.903Z,15.23
2022-08-31T23:14:43.889Z,13.80
2022-08-31T23:17:49.813Z,13.30
2022-08-31T23:20:53.010Z,14.70
2022-08-31T23:23:56.002Z,14.30
2022-08-31T23:27:04.223Z,15.63
2022-08-31T23:30:09.994Z,13.17
2022-08-31T23:33:12.024Z,13.47
2022-08-31T23:36:14.564Z,13.70
2022-08-31T23:39:19.500Z,12.93
2022-08-31T23:42:23.425Z,13.17
2022-08-31T23:45:25.634Z,13.30
2022-08-31T23:48:28.704Z,12.33
2022-08-31T23:51:30.856Z,13.80
2022-08-31T23:54:33.665Z,17.83
2022-08-31T23:57:36.595Z,12.63
